Huvudsida
METAR-TAF:

METAR-TAF

Flygplatser :

Jendouba, Tunisien

latitud: 36-29N, longitud: 008-48E, höjd: 143 m

Aktuellt väderrapport

Denna rapport gjordes för 52 minuter sedan, klockan 14:00 UTC
Vind 10 kt från nord/nordost, varierande mellan nord och nordost
Temperatur 38°C
Fuktighet 23%
Tryck 1017 hPa
Sikt 10 km eller mer
Inga moln under 1 500 m eller inga cumulonimbus

METAR: DTTN 261400Z 02010KT 350V050 CAVOK 38/13 Q1017 SIROCCO

Tid: 15:52 (14:52 UTC)


TAF: saknas

Aktuella väderrapporter och prognoser från 4000 flygplatser (METAR- och TAF-rapporter).

De tillgängliga stationerna syns som gula och röda prickar på kartan.

För musen över prickarna för att se namnen på stationerna.

Klicka sedan för att få väderrapporter och prognoser.

För att ändra kartan: Klicka på de gröna knapparna med ett svart kors på för att zooma in; den gröna knappen med ett streck på för att zooma ut; eller på de gröna pilarna för angränsande kartor.


METAR-TAF: